sensor_id;sensor_type;location;lat;lon;timestamp;P1;durP1;ratioP1;P2;durP2;ratioP2
76749;SDS011;66447;35.844;14.468;2023-02-27T00:00:25;43.08;;;4.28;;
76749;SDS011;66447;35.844;14.468;2023-02-27T00:15:26;49.35;;;4.63;;
76749;SDS011;66447;35.844;14.468;2023-02-27T00:30:29;43.72;;;5.35;;
76749;SDS011;66447;35.844;14.468;2023-02-27T00:45:30;59.77;;;4.50;;
76749;SDS011;66447;35.844;14.468;2023-02-27T01:00:31;44.72;;;4.45;;
76749;SDS011;66447;35.844;14.468;2023-02-27T01:15:35;45.03;;;5.00;;
76749;SDS011;66447;35.844;14.468;2023-02-27T01:30:36;64.70;;;6.43;;
76749;SDS011;66447;35.844;14.468;2023-02-27T01:45:40;56.72;;;5.30;;
76749;SDS011;66447;35.844;14.468;2023-02-27T02:00:42;56.75;;;6.43;;
76749;SDS011;66447;35.844;14.468;2023-02-27T02:15:46;55.43;;;6.33;;
76749;SDS011;66447;35.844;14.468;2023-02-27T02:46:24;52.58;;;5.05;;
76749;SDS011;66447;35.844;14.468;2023-02-27T03:02:02;58.38;;;5.32;;
76749;SDS011;66447;35.844;14.468;2023-02-27T03:17:29;45.35;;;5.53;;
76749;SDS011;66447;35.844;14.468;2023-02-27T03:32:37;52.63;;;7.47;;
76749;SDS011;66447;35.844;14.468;2023-02-27T03:47:45;51.72;;;5.90;;
76749;SDS011;66447;35.844;14.468;2023-02-27T04:02:46;63.93;;;6.40;;
76749;SDS011;66447;35.844;14.468;2023-02-27T04:33:25;59.83;;;6.15;;
76749;SDS011;66447;35.844;14.468;2023-02-27T04:49:01;68.57;;;8.45;;
76749;SDS011;66447;35.844;14.468;2023-02-27T05:04:03;58.92;;;7.18;;
76749;SDS011;66447;35.844;14.468;2023-02-27T05:19:06;65.18;;;6.63;;
76749;SDS011;66447;35.844;14.468;2023-02-27T05:49:45;55.83;;;6.32;;
76749;SDS011;66447;35.844;14.468;2023-02-27T06:04:51;63.35;;;6.35;;
76749;SDS011;66447;35.844;14.468;2023-02-27T06:34:53;68.97;;;7.15;;
76749;SDS011;66447;35.844;14.468;2023-02-27T06:49:53;71.15;;;7.30;;
76749;SDS011;66447;35.844;14.468;2023-02-27T07:04:55;77.75;;;7.80;;
76749;SDS011;66447;35.844;14.468;2023-02-27T07:19:56;78.70;;;7.65;;
76749;SDS011;66447;35.844;14.468;2023-02-27T07:34:59;75.82;;;7.45;;
76749;SDS011;66447;35.844;14.468;2023-02-27T07:50:02;65.82;;;6.25;;
76749;SDS011;66447;35.844;14.468;2023-02-27T08:05:04;82.82;;;9.95;;
76749;SDS011;66447;35.844;14.468;2023-02-27T08:20:06;65.13;;;8.48;;
76749;SDS011;66447;35.844;14.468;2023-02-27T08:35:08;66.53;;;8.73;;
76749;SDS011;66447;35.844;14.468;2023-02-27T08:50:09;73.20;;;11.07;;
76749;SDS011;66447;35.844;14.468;2023-02-27T09:05:14;78.13;;;9.57;;
76749;SDS011;66447;35.844;14.468;2023-02-27T09:20:15;76.25;;;9.50;;
76749;SDS011;66447;35.844;14.468;2023-02-27T09:35:16;84.13;;;11.25;;
76749;SDS011;66447;35.844;14.468;2023-02-27T09:50:24;93.15;;;11.73;;
76749;SDS011;66447;35.844;14.468;2023-02-27T10:06:24;88.00;;;11.77;;
76749;SDS011;66447;35.844;14.468;2023-02-27T10:21:19;79.90;;;9.33;;
76749;SDS011;66447;35.844;14.468;2023-02-27T10:36:23;67.85;;;9.02;;
76749;SDS011;66447;35.844;14.468;2023-02-27T10:51:29;75.63;;;8.73;;
76749;SDS011;66447;35.844;14.468;2023-02-27T11:06:34;71.85;;;9.35;;
76749;SDS011;66447;35.844;14.468;2023-02-27T11:21:35;76.15;;;9.18;;
76749;SDS011;66447;35.844;14.468;2023-02-27T11:36:39;71.00;;;8.52;;
76749;SDS011;66447;35.844;14.468;2023-02-27T12:07:20;45.47;;;5.95;;
76749;SDS011;66447;35.844;14.468;2023-02-27T12:22:27;52.58;;;5.60;;
76749;SDS011;66447;35.844;14.468;2023-02-27T12:37:31;42.58;;;5.18;;
76749;SDS011;66447;35.844;14.468;2023-02-27T13:08:26;49.00;;;5.00;;
76749;SDS011;66447;35.844;14.468;2023-02-27T13:24:01;36.40;;;4.22;;
76749;SDS011;66447;35.844;14.468;2023-02-27T13:54:41;38.15;;;6.03;;
76749;SDS011;66447;35.844;14.468;2023-02-27T14:09:43;48.20;;;4.82;;
76749;SDS011;66447;35.844;14.468;2023-02-27T14:24:46;47.47;;;5.63;;
76749;SDS011;66447;35.844;14.468;2023-02-27T14:40:02;42.87;;;5.20;;
76749;SDS011;66447;35.844;14.468;2023-02-27T14:55:24;44.47;;;5.45;;
76749;SDS011;66447;35.844;14.468;2023-02-27T15:10:28;47.10;;;4.70;;
76749;SDS011;66447;35.844;14.468;2023-02-27T15:25:34;41.65;;;4.75;;
76749;SDS011;66447;35.844;14.468;2023-02-27T15:40:37;36.45;;;4.72;;
76749;SDS011;66447;35.844;14.468;2023-02-27T15:56:00;37.17;;;4.70;;
76749;SDS011;66447;35.844;14.468;2023-02-27T16:11:05;33.63;;;5.03;;
76749;SDS011;66447;35.844;14.468;2023-02-27T16:41:33;42.15;;;4.82;;
76749;SDS011;66447;35.844;14.468;2023-02-27T16:56:35;45.15;;;4.80;;
76749;SDS011;66447;35.844;14.468;2023-02-27T17:11:38;39.13;;;5.22;;
76749;SDS011;66447;35.844;14.468;2023-02-27T17:26:39;36.10;;;5.90;;
76749;SDS011;66447;35.844;14.468;2023-02-27T17:41:42;62.08;;;11.13;;
76749;SDS011;66447;35.844;14.468;2023-02-27T17:56:44;39.85;;;6.22;;
76749;SDS011;66447;35.844;14.468;2023-02-27T18:26:46;43.30;;;6.05;;
76749;SDS011;66447;35.844;14.468;2023-02-27T18:41:48;38.17;;;5.70;;
76749;SDS011;66447;35.844;14.468;2023-02-27T18:56:51;53.75;;;7.20;;
76749;SDS011;66447;35.844;14.468;2023-02-27T19:11:52;54.10;;;7.80;;
76749;SDS011;66447;35.844;14.468;2023-02-27T19:26:55;46.67;;;9.30;;
76749;SDS011;66447;35.844;14.468;2023-02-27T19:41:58;62.28;;;9.82;;
76749;SDS011;66447;35.844;14.468;2023-02-27T19:57:00;52.40;;;9.88;;
76749;SDS011;66447;35.844;14.468;2023-02-27T20:12:11;72.22;;;11.50;;
76749;SDS011;66447;35.844;14.468;2023-02-27T20:27:12;154.30;;;14.75;;
76749;SDS011;66447;35.844;14.468;2023-02-27T20:42:14;161.35;;;18.67;;
76749;SDS011;66447;35.844;14.468;2023-02-27T20:57:16;156.68;;;18.30;;
76749;SDS011;66447;35.844;14.468;2023-02-27T21:12:17;151.32;;;15.73;;
76749;SDS011;66447;35.844;14.468;2023-02-27T21:42:20;181.27;;;19.47;;
76749;SDS011;66447;35.844;14.468;2023-02-27T22:12:24;137.38;;;16.60;;
76749;SDS011;66447;35.844;14.468;2023-02-27T22:27:26;120.22;;;14.32;;
76749;SDS011;66447;35.844;14.468;2023-02-27T22:42:27;113.90;;;11.93;;
76749;SDS011;66447;35.844;14.468;2023-02-27T22:57:28;129.15;;;15.68;;
76749;SDS011;66447;35.844;14.468;2023-02-27T23:12:30;115.38;;;13.57;;
76749;SDS011;66447;35.844;14.468;2023-02-27T23:27:31;116.63;;;13.50;;
76749;SDS011;66447;35.844;14.468;2023-02-27T23:57:33;108.07;;;11.00;;
